Redstone Arsenal, Alabama
Current Conditions -  °F | °C
As of 5:58 PM on Monday 24 Nov 2014 (Local Time) from KHUA Reporting Station
Clear Clear  
Wind Chill: 53°   Ceiling: Unl
Heat Index: 53°   Visibility: 10mi
Dew Point: 39°   Wind: 8mph
Humidity: 58%   Direction: 270°W
Pressure: 29.94"   Gusts: NA
Location:  34.6546°N, 86.6455°W
Report Text: KHUA 242358Z AUTO 27007KT 10SM CLR 12/04 A2994 RMK AO2 SLP138 T01190039 10169 20119 52027
Loading
Personal Weather Stations






























Interactive Weather Map New forecast layout! Learn more

10-Day Weather Forecast

Advertisements
Track Severe Weather on mobile